sensor_id;sensor_type;location;lat;lon;timestamp;P1;durP1;ratioP1;P2;durP2;ratioP2
7503;SDS011;3793;48.136;11.536;2022-11-25T00:00:51;5.03;;;3.00;;
7503;SDS011;3793;48.136;11.536;2022-11-25T00:03:18;3.67;;;2.93;;
7503;SDS011;3793;48.136;11.536;2022-11-25T00:05:44;2.63;;;2.30;;
7503;SDS011;3793;48.136;11.536;2022-11-25T00:08:11;3.57;;;2.53;;
7503;SDS011;3793;48.136;11.536;2022-11-25T00:10:37;5.47;;;2.80;;
7503;SDS011;3793;48.136;11.536;2022-11-25T00:13:04;4.50;;;2.43;;
7503;SDS011;3793;48.136;11.536;2022-11-25T00:15:35;3.37;;;2.53;;
7503;SDS011;3793;48.136;11.536;2022-11-25T00:18:01;4.67;;;2.70;;
7503;SDS011;3793;48.136;11.536;2022-11-25T00:20:31;5.40;;;3.00;;
7503;SDS011;3793;48.136;11.536;2022-11-25T00:22:57;4.23;;;2.77;;
7503;SDS011;3793;48.136;11.536;2022-11-25T00:25:24;5.03;;;2.47;;
7503;SDS011;3793;48.136;11.536;2022-11-25T00:27:51;3.43;;;2.47;;
7503;SDS011;3793;48.136;11.536;2022-11-25T00:30:17;4.03;;;2.80;;
7503;SDS011;3793;48.136;11.536;2022-11-25T00:32:45;3.57;;;2.37;;
7503;SDS011;3793;48.136;11.536;2022-11-25T00:35:12;3.33;;;2.40;;
7503;SDS011;3793;48.136;11.536;2022-11-25T00:37:38;5.70;;;2.23;;
7503;SDS011;3793;48.136;11.536;2022-11-25T00:40:06;2.90;;;2.20;;
7503;SDS011;3793;48.136;11.536;2022-11-25T00:42:32;4.97;;;2.77;;
7503;SDS011;3793;48.136;11.536;2022-11-25T00:45:16;3.20;;;2.53;;
7503;SDS011;3793;48.136;11.536;2022-11-25T00:47:43;4.03;;;2.50;;
7503;SDS011;3793;48.136;11.536;2022-11-25T00:50:11;3.17;;;2.57;;
7503;SDS011;3793;48.136;11.536;2022-11-25T00:52:37;8.03;;;5.97;;
7503;SDS011;3793;48.136;11.536;2022-11-25T00:55:04;5.00;;;3.27;;
7503;SDS011;3793;48.136;11.536;2022-11-25T00:57:31;4.10;;;2.40;;
7503;SDS011;3793;48.136;11.536;2022-11-25T00:59:57;3.97;;;2.63;;
7503;SDS011;3793;48.136;11.536;2022-11-25T01:02:24;3.63;;;2.53;;
7503;SDS011;3793;48.136;11.536;2022-11-25T01:04:50;3.07;;;2.27;;
7503;SDS011;3793;48.136;11.536;2022-11-25T01:07:19;2.93;;;2.10;;
7503;SDS011;3793;48.136;11.536;2022-11-25T01:09:46;2.70;;;2.10;;
7503;SDS011;3793;48.136;11.536;2022-11-25T01:12:13;3.00;;;2.23;;
7503;SDS011;3793;48.136;11.536;2022-11-25T01:14:39;2.87;;;1.93;;
7503;SDS011;3793;48.136;11.536;2022-11-25T01:17:06;3.70;;;2.50;;
7503;SDS011;3793;48.136;11.536;2022-11-25T01:19:32;4.40;;;2.63;;
7503;SDS011;3793;48.136;11.536;2022-11-25T01:22:02;3.00;;;2.00;;
7503;SDS011;3793;48.136;11.536;2022-11-25T01:24:30;2.67;;;2.00;;
7503;SDS011;3793;48.136;11.536;2022-11-25T01:26:57;2.57;;;2.00;;
7503;SDS011;3793;48.136;11.536;2022-11-25T01:29:23;3.57;;;2.10;;
7503;SDS011;3793;48.136;11.536;2022-11-25T01:31:50;2.37;;;2.00;;
7503;SDS011;3793;48.136;11.536;2022-11-25T01:34:25;3.53;;;2.40;;
7503;SDS011;3793;48.136;11.536;2022-11-25T01:36:56;2.73;;;2.20;;
7503;SDS011;3793;48.136;11.536;2022-11-25T01:39:23;2.23;;;1.90;;
7503;SDS011;3793;48.136;11.536;2022-11-25T01:41:51;2.23;;;1.93;;
7503;SDS011;3793;48.136;11.536;2022-11-25T01:44:18;3.43;;;1.97;;
7503;SDS011;3793;48.136;11.536;2022-11-25T01:46:54;3.07;;;2.40;;
7503;SDS011;3793;48.136;11.536;2022-11-25T01:49:24;4.73;;;2.60;;
7503;SDS011;3793;48.136;11.536;2022-11-25T01:51:53;4.00;;;2.40;;
7503;SDS011;3793;48.136;11.536;2022-11-25T01:54:22;6.23;;;2.40;;
7503;SDS011;3793;48.136;11.536;2022-11-25T01:56:51;3.07;;;2.00;;
7503;SDS011;3793;48.136;11.536;2022-11-25T01:59:18;3.10;;;2.20;;
7503;SDS011;3793;48.136;11.536;2022-11-25T02:01:45;2.93;;;2.30;;
7503;SDS011;3793;48.136;11.536;2022-11-25T02:04:11;2.87;;;1.93;;
7503;SDS011;3793;48.136;11.536;2022-11-25T02:06:41;2.93;;;2.03;;
7503;SDS011;3793;48.136;11.536;2022-11-25T02:09:10;3.27;;;2.20;;
7503;SDS011;3793;48.136;11.536;2022-11-25T02:11:38;3.20;;;1.90;;
7503;SDS011;3793;48.136;11.536;2022-11-25T02:14:07;3.50;;;2.63;;
7503;SDS011;3793;48.136;11.536;2022-11-25T02:16:33;2.73;;;1.97;;
7503;SDS011;3793;48.136;11.536;2022-11-25T02:19:00;3.20;;;2.40;;
7503;SDS011;3793;48.136;11.536;2022-11-25T02:21:30;2.53;;;2.20;;
7503;SDS011;3793;48.136;11.536;2022-11-25T02:24:01;4.83;;;2.40;;
7503;SDS011;3793;48.136;11.536;2022-11-25T02:26:31;2.90;;;2.30;;
7503;SDS011;3793;48.136;11.536;2022-11-25T02:28:57;4.27;;;2.30;;
7503;SDS011;3793;48.136;11.536;2022-11-25T02:31:24;3.10;;;2.23;;
7503;SDS011;3793;48.136;11.536;2022-11-25T02:33:50;3.30;;;2.17;;
7503;SDS011;3793;48.136;11.536;2022-11-25T02:36:17;2.30;;;2.07;;
7503;SDS011;3793;48.136;11.536;2022-11-25T02:38:46;2.60;;;2.20;;
7503;SDS011;3793;48.136;11.536;2022-11-25T02:41:13;2.50;;;2.10;;
7503;SDS011;3793;48.136;11.536;2022-11-25T02:43:42;2.57;;;1.93;;
7503;SDS011;3793;48.136;11.536;2022-11-25T02:46:09;2.77;;;1.90;;
7503;SDS011;3793;48.136;11.536;2022-11-25T02:48:37;2.53;;;1.97;;
7503;SDS011;3793;48.136;11.536;2022-11-25T02:51:04;2.23;;;1.83;;
7503;SDS011;3793;48.136;11.536;2022-11-25T02:53:31;2.80;;;2.27;;
7503;SDS011;3793;48.136;11.536;2022-11-25T02:55:57;2.87;;;1.80;;
7503;SDS011;3793;48.136;11.536;2022-11-25T02:58:24;1.73;;;1.57;;
7503;SDS011;3793;48.136;11.536;2022-11-25T03:00:52;1.87;;;1.70;;
7503;SDS011;3793;48.136;11.536;2022-11-25T03:03:18;4.30;;;1.90;;
7503;SDS011;3793;48.136;11.536;2022-11-25T03:05:45;2.50;;;2.00;;
7503;SDS011;3793;48.136;11.536;2022-11-25T03:08:11;3.10;;;2.10;;
7503;SDS011;3793;48.136;11.536;2022-11-25T03:10:41;2.43;;;1.80;;
7503;SDS011;3793;48.136;11.536;2022-11-25T03:13:08;2.10;;;1.70;;
7503;SDS011;3793;48.136;11.536;2022-11-25T03:15:39;2.40;;;2.03;;
7503;SDS011;3793;48.136;11.536;2022-11-25T03:18:07;2.40;;;1.87;;
7503;SDS011;3793;48.136;11.536;2022-11-25T03:20:34;2.73;;;2.07;;
7503;SDS011;3793;48.136;11.536;2022-11-25T03:23:01;2.17;;;1.80;;
7503;SDS011;3793;48.136;11.536;2022-11-25T03:25:28;2.30;;;2.00;;
7503;SDS011;3793;48.136;11.536;2022-11-25T03:27:55;3.13;;;2.00;;
7503;SDS011;3793;48.136;11.536;2022-11-25T03:30:22;2.13;;;1.93;;
7503;SDS011;3793;48.136;11.536;2022-11-25T03:32:49;2.47;;;2.00;;
7503;SDS011;3793;48.136;11.536;2022-11-25T03:35:24;1.80;;;1.70;;
7503;SDS011;3793;48.136;11.536;2022-11-25T03:38:05;1.83;;;1.67;;
7503;SDS011;3793;48.136;11.536;2022-11-25T03:40:40;2.27;;;1.80;;
7503;SDS011;3793;48.136;11.536;2022-11-25T03:43:19;2.57;;;1.87;;
7503;SDS011;3793;48.136;11.536;2022-11-25T03:45:59;5.33;;;2.17;;
7503;SDS011;3793;48.136;11.536;2022-11-25T03:48:26;2.63;;;1.97;;
7503;SDS011;3793;48.136;11.536;2022-11-25T03:50:54;2.57;;;2.13;;
7503;SDS011;3793;48.136;11.536;2022-11-25T03:53:21;2.43;;;2.23;;
7503;SDS011;3793;48.136;11.536;2022-11-25T03:55:47;2.43;;;1.90;;
7503;SDS011;3793;48.136;11.536;2022-11-25T03:58:14;2.57;;;1.83;;
7503;SDS011;3793;48.136;11.536;2022-11-25T04:00:40;2.43;;;2.13;;
7503;SDS011;3793;48.136;11.536;2022-11-25T04:03:07;2.57;;;1.80;;
7503;SDS011;3793;48.136;11.536;2022-11-25T04:05:33;3.67;;;2.07;;
7503;SDS011;3793;48.136;11.536;2022-11-25T04:08:02;3.07;;;1.90;;
7503;SDS011;3793;48.136;11.536;2022-11-25T04:10:28;2.40;;;1.90;;
7503;SDS011;3793;48.136;11.536;2022-11-25T04:12:58;2.20;;;2.00;;
7503;SDS011;3793;48.136;11.536;2022-11-25T04:15:26;2.83;;;1.83;;
7503;SDS011;3793;48.136;11.536;2022-11-25T04:17:59;3.07;;;2.10;;
7503;SDS011;3793;48.136;11.536;2022-11-25T04:20:26;2.53;;;2.10;;
7503;SDS011;3793;48.136;11.536;2022-11-25T04:22:53;2.73;;;2.10;;
7503;SDS011;3793;48.136;11.536;2022-11-25T04:25:21;3.40;;;2.10;;
7503;SDS011;3793;48.136;11.536;2022-11-25T04:27:47;2.70;;;2.17;;
7503;SDS011;3793;48.136;11.536;2022-11-25T04:30:14;2.57;;;2.20;;
7503;SDS011;3793;48.136;11.536;2022-11-25T04:32:41;1.87;;;1.77;;
7503;SDS011;3793;48.136;11.536;2022-11-25T04:35:07;2.90;;;2.30;;
7503;SDS011;3793;48.136;11.536;2022-11-25T04:37:34;2.13;;;1.93;;
7503;SDS011;3793;48.136;11.536;2022-11-25T04:40:01;2.70;;;1.90;;
7503;SDS011;3793;48.136;11.536;2022-11-25T04:42:31;3.33;;;2.00;;
7503;SDS011;3793;48.136;11.536;2022-11-25T04:45:04;2.10;;;1.80;;
7503;SDS011;3793;48.136;11.536;2022-11-25T04:47:31;2.93;;;1.87;;
7503;SDS011;3793;48.136;11.536;2022-11-25T04:50:02;2.37;;;2.10;;
7503;SDS011;3793;48.136;11.536;2022-11-25T04:52:32;3.30;;;2.10;;
7503;SDS011;3793;48.136;11.536;2022-11-25T04:54:59;3.60;;;2.37;;
7503;SDS011;3793;48.136;11.536;2022-11-25T04:57:25;2.13;;;1.83;;
7503;SDS011;3793;48.136;11.536;2022-11-25T04:59:54;2.73;;;2.03;;
7503;SDS011;3793;48.136;11.536;2022-11-25T05:02:20;2.97;;;2.00;;
7503;SDS011;3793;48.136;11.536;2022-11-25T05:04:47;2.30;;;2.07;;
7503;SDS011;3793;48.136;11.536;2022-11-25T05:07:15;2.07;;;1.90;;
7503;SDS011;3793;48.136;11.536;2022-11-25T05:09:42;2.27;;;2.07;;
7503;SDS011;3793;48.136;11.536;2022-11-25T05:12:09;3.40;;;2.07;;
7503;SDS011;3793;48.136;11.536;2022-11-25T05:14:36;4.73;;;1.77;;
7503;SDS011;3793;48.136;11.536;2022-11-25T05:17:05;2.77;;;2.57;;
7503;SDS011;3793;48.136;11.536;2022-11-25T05:19:32;3.87;;;2.23;;
7503;SDS011;3793;48.136;11.536;2022-11-25T05:22:00;3.63;;;2.37;;
7503;SDS011;3793;48.136;11.536;2022-11-25T05:24:26;4.60;;;2.27;;
7503;SDS011;3793;48.136;11.536;2022-11-25T05:26:53;5.50;;;2.73;;
7503;SDS011;3793;48.136;11.536;2022-11-25T05:29:19;4.17;;;2.40;;
7503;SDS011;3793;48.136;11.536;2022-11-25T05:31:46;3.87;;;2.30;;
7503;SDS011;3793;48.136;11.536;2022-11-25T05:34:14;5.67;;;2.90;;
7503;SDS011;3793;48.136;11.536;2022-11-25T05:36:41;4.73;;;2.77;;
7503;SDS011;3793;48.136;11.536;2022-11-25T05:39:07;4.67;;;2.50;;
7503;SDS011;3793;48.136;11.536;2022-11-25T05:41:34;4.27;;;2.27;;
7503;SDS011;3793;48.136;11.536;2022-11-25T05:44:00;5.37;;;2.50;;
7503;SDS011;3793;48.136;11.536;2022-11-25T05:46:29;4.07;;;2.13;;
7503;SDS011;3793;48.136;11.536;2022-11-25T05:48:55;2.47;;;1.80;;
7503;SDS011;3793;48.136;11.536;2022-11-25T05:51:24;3.07;;;2.03;;
7503;SDS011;3793;48.136;11.536;2022-11-25T05:53:52;2.90;;;1.97;;
7503;SDS011;3793;48.136;11.536;2022-11-25T05:56:18;2.50;;;2.00;;
7503;SDS011;3793;48.136;11.536;2022-11-25T05:58:45;2.37;;;1.80;;
7503;SDS011;3793;48.136;11.536;2022-11-25T06:01:12;3.47;;;2.00;;
7503;SDS011;3793;48.136;11.536;2022-11-25T06:03:39;3.13;;;1.90;;
7503;SDS011;3793;48.136;11.536;2022-11-25T06:06:09;2.80;;;2.17;;
7503;SDS011;3793;48.136;11.536;2022-11-25T06:08:38;3.70;;;2.53;;
7503;SDS011;3793;48.136;11.536;2022-11-25T06:11:05;3.90;;;2.07;;
7503;SDS011;3793;48.136;11.536;2022-11-25T06:13:31;2.57;;;1.97;;
7503;SDS011;3793;48.136;11.536;2022-11-25T06:15:58;1.80;;;1.63;;
7503;SDS011;3793;48.136;11.536;2022-11-25T06:18:25;4.40;;;2.00;;
7503;SDS011;3793;48.136;11.536;2022-11-25T06:20:55;3.33;;;2.00;;
7503;SDS011;3793;48.136;11.536;2022-11-25T06:23:21;2.33;;;1.90;;
7503;SDS011;3793;48.136;11.536;2022-11-25T06:25:49;3.33;;;2.63;;
7503;SDS011;3793;48.136;11.536;2022-11-25T06:28:16;2.37;;;1.73;;
7503;SDS011;3793;48.136;11.536;2022-11-25T06:30:43;2.77;;;1.70;;
7503;SDS011;3793;48.136;11.536;2022-11-25T06:33:09;1.70;;;1.60;;
7503;SDS011;3793;48.136;11.536;2022-11-25T06:35:36;3.00;;;1.73;;
7503;SDS011;3793;48.136;11.536;2022-11-25T06:38:03;2.87;;;2.07;;
7503;SDS011;3793;48.136;11.536;2022-11-25T06:40:29;3.90;;;2.03;;
7503;SDS011;3793;48.136;11.536;2022-11-25T06:42:58;2.80;;;2.00;;
7503;SDS011;3793;48.136;11.536;2022-11-25T06:45:24;3.23;;;2.20;;
7503;SDS011;3793;48.136;11.536;2022-11-25T06:47:51;3.10;;;2.17;;
7503;SDS011;3793;48.136;11.536;2022-11-25T06:50:20;3.00;;;2.20;;
7503;SDS011;3793;48.136;11.536;2022-11-25T06:52:46;3.37;;;2.30;;
7503;SDS011;3793;48.136;11.536;2022-11-25T06:55:13;2.93;;;2.27;;
7503;SDS011;3793;48.136;11.536;2022-11-25T06:57:44;3.83;;;2.17;;
7503;SDS011;3793;48.136;11.536;2022-11-25T07:00:13;3.33;;;2.43;;
7503;SDS011;3793;48.136;11.536;2022-11-25T07:02:43;2.87;;;2.33;;
7503;SDS011;3793;48.136;11.536;2022-11-25T07:05:10;4.13;;;2.63;;
7503;SDS011;3793;48.136;11.536;2022-11-25T07:07:36;4.47;;;2.43;;
7503;SDS011;3793;48.136;11.536;2022-11-25T07:10:03;4.30;;;2.53;;
7503;SDS011;3793;48.136;11.536;2022-11-25T07:12:32;3.30;;;2.53;;
7503;SDS011;3793;48.136;11.536;2022-11-25T07:14:59;6.83;;;2.60;;
7503;SDS011;3793;48.136;11.536;2022-11-25T07:17:27;4.27;;;2.60;;
7503;SDS011;3793;48.136;11.536;2022-11-25T07:19:53;3.73;;;2.33;;
7503;SDS011;3793;48.136;11.536;2022-11-25T07:22:20;5.03;;;2.60;;
7503;SDS011;3793;48.136;11.536;2022-11-25T07:24:47;2.87;;;2.17;;
7503;SDS011;3793;48.136;11.536;2022-11-25T07:27:13;4.47;;;2.27;;
7503;SDS011;3793;48.136;11.536;2022-11-25T07:29:40;3.47;;;2.47;;
7503;SDS011;3793;48.136;11.536;2022-11-25T07:32:06;3.97;;;2.33;;
7503;SDS011;3793;48.136;11.536;2022-11-25T07:34:34;3.27;;;2.30;;
7503;SDS011;3793;48.136;11.536;2022-11-25T07:37:01;3.10;;;1.80;;
7503;SDS011;3793;48.136;11.536;2022-11-25T07:39:27;3.57;;;2.30;;
7503;SDS011;3793;48.136;11.536;2022-11-25T07:41:54;2.43;;;2.00;;
7503;SDS011;3793;48.136;11.536;2022-11-25T07:44:20;3.73;;;2.00;;
7503;SDS011;3793;48.136;11.536;2022-11-25T07:46:47;3.33;;;1.97;;
7503;SDS011;3793;48.136;11.536;2022-11-25T07:49:14;2.73;;;1.90;;
7503;SDS011;3793;48.136;11.536;2022-11-25T07:51:45;2.50;;;1.90;;
7503;SDS011;3793;48.136;11.536;2022-11-25T07:54:12;3.43;;;1.90;;
7503;SDS011;3793;48.136;11.536;2022-11-25T07:56:40;3.63;;;2.00;;
7503;SDS011;3793;48.136;11.536;2022-11-25T07:59:08;5.87;;;1.80;;
7503;SDS011;3793;48.136;11.536;2022-11-25T08:01:35;4.20;;;2.47;;
7503;SDS011;3793;48.136;11.536;2022-11-25T08:04:02;5.23;;;2.30;;
7503;SDS011;3793;48.136;11.536;2022-11-25T08:06:28;4.40;;;2.50;;
7503;SDS011;3793;48.136;11.536;2022-11-25T08:08:57;5.37;;;2.50;;
7503;SDS011;3793;48.136;11.536;2022-11-25T08:11:25;4.17;;;2.37;;
7503;SDS011;3793;48.136;11.536;2022-11-25T08:13:51;2.33;;;2.10;;
7503;SDS011;3793;48.136;11.536;2022-11-25T08:16:20;4.53;;;3.00;;
7503;SDS011;3793;48.136;11.536;2022-11-25T08:18:47;3.20;;;2.40;;
7503;SDS011;3793;48.136;11.536;2022-11-25T08:21:14;4.40;;;2.70;;
7503;SDS011;3793;48.136;11.536;2022-11-25T08:23:41;3.10;;;2.37;;
7503;SDS011;3793;48.136;11.536;2022-11-25T08:26:10;3.67;;;2.37;;
7503;SDS011;3793;48.136;11.536;2022-11-25T08:28:37;4.00;;;2.50;;
7503;SDS011;3793;48.136;11.536;2022-11-25T08:31:05;3.57;;;2.37;;
7503;SDS011;3793;48.136;11.536;2022-11-25T08:33:32;4.07;;;1.90;;
7503;SDS011;3793;48.136;11.536;2022-11-25T08:35:59;2.93;;;2.03;;
7503;SDS011;3793;48.136;11.536;2022-11-25T08:38:26;4.23;;;2.00;;
7503;SDS011;3793;48.136;11.536;2022-11-25T08:40:53;2.90;;;2.03;;
7503;SDS011;3793;48.136;11.536;2022-11-25T08:43:21;5.13;;;2.50;;
7503;SDS011;3793;48.136;11.536;2022-11-25T08:45:48;4.67;;;2.10;;
7503;SDS011;3793;48.136;11.536;2022-11-25T08:48:15;3.30;;;2.43;;
7503;SDS011;3793;48.136;11.536;2022-11-25T08:50:44;3.07;;;2.33;;
7503;SDS011;3793;48.136;11.536;2022-11-25T08:53:11;3.97;;;2.13;;
7503;SDS011;3793;48.136;11.536;2022-11-25T08:55:37;2.43;;;2.23;;
7503;SDS011;3793;48.136;11.536;2022-11-25T08:58:04;2.90;;;2.20;;
7503;SDS011;3793;48.136;11.536;2022-11-25T09:00:35;4.93;;;2.80;;
7503;SDS011;3793;48.136;11.536;2022-11-25T09:03:02;2.83;;;2.23;;
7503;SDS011;3793;48.136;11.536;2022-11-25T09:05:29;2.20;;;1.80;;
7503;SDS011;3793;48.136;11.536;2022-11-25T09:08:00;5.17;;;2.43;;
7503;SDS011;3793;48.136;11.536;2022-11-25T09:10:26;3.07;;;2.43;;
7503;SDS011;3793;48.136;11.536;2022-11-25T09:12:53;2.87;;;2.17;;
7503;SDS011;3793;48.136;11.536;2022-11-25T09:15:20;2.90;;;2.00;;
7503;SDS011;3793;48.136;11.536;2022-11-25T09:17:48;3.47;;;2.13;;
7503;SDS011;3793;48.136;11.536;2022-11-25T09:20:15;3.30;;;2.10;;
7503;SDS011;3793;48.136;11.536;2022-11-25T09:22:41;4.13;;;2.20;;
7503;SDS011;3793;48.136;11.536;2022-11-25T09:25:08;6.30;;;2.50;;
7503;SDS011;3793;48.136;11.536;2022-11-25T09:27:35;3.80;;;2.30;;
7503;SDS011;3793;48.136;11.536;2022-11-25T09:30:02;3.23;;;2.20;;
7503;SDS011;3793;48.136;11.536;2022-11-25T09:32:29;3.30;;;2.10;;
7503;SDS011;3793;48.136;11.536;2022-11-25T09:34:57;4.23;;;2.20;;
7503;SDS011;3793;48.136;11.536;2022-11-25T09:37:23;5.43;;;2.10;;
7503;SDS011;3793;48.136;11.536;2022-11-25T09:39:50;2.77;;;1.97;;
7503;SDS011;3793;48.136;11.536;2022-11-25T09:42:23;3.17;;;1.83;;
7503;SDS011;3793;48.136;11.536;2022-11-25T09:45:24;3.47;;;2.10;;
7503;SDS011;3793;48.136;11.536;2022-11-25T09:48:15;2.33;;;1.73;;
7503;SDS011;3793;48.136;11.536;2022-11-25T09:50:51;3.77;;;1.80;;
7503;SDS011;3793;48.136;11.536;2022-11-25T09:53:22;3.20;;;1.67;;
7503;SDS011;3793;48.136;11.536;2022-11-25T09:55:53;3.67;;;1.47;;
7503;SDS011;3793;48.136;11.536;2022-11-25T09:58:22;2.47;;;1.50;;
7503;SDS011;3793;48.136;11.536;2022-11-25T10:00:51;3.20;;;1.90;;
7503;SDS011;3793;48.136;11.536;2022-11-25T10:03:21;3.67;;;1.77;;
7503;SDS011;3793;48.136;11.536;2022-11-25T10:05:56;5.43;;;2.00;;
7503;SDS011;3793;48.136;11.536;2022-11-25T10:08:25;1.60;;;1.50;;
7503;SDS011;3793;48.136;11.536;2022-11-25T10:10:54;2.87;;;1.73;;
7503;SDS011;3793;48.136;11.536;2022-11-25T10:13:26;3.67;;;1.70;;
7503;SDS011;3793;48.136;11.536;2022-11-25T10:15:54;3.27;;;1.50;;
7503;SDS011;3793;48.136;11.536;2022-11-25T10:18:24;3.60;;;1.40;;
7503;SDS011;3793;48.136;11.536;2022-11-25T10:20:52;2.90;;;1.30;;
7503;SDS011;3793;48.136;11.536;2022-11-25T10:23:21;2.10;;;1.50;;
7503;SDS011;3793;48.136;11.536;2022-11-25T10:25:49;3.30;;;1.40;;
7503;SDS011;3793;48.136;11.536;2022-11-25T10:28:18;4.13;;;1.20;;
7503;SDS011;3793;48.136;11.536;2022-11-25T10:30:46;2.40;;;1.50;;
7503;SDS011;3793;48.136;11.536;2022-11-25T10:33:17;1.83;;;1.13;;
7503;SDS011;3793;48.136;11.536;2022-11-25T10:35:45;2.90;;;1.30;;
7503;SDS011;3793;48.136;11.536;2022-11-25T10:38:19;1.53;;;1.43;;
7503;SDS011;3793;48.136;11.536;2022-11-25T10:40:49;2.67;;;1.27;;
7503;SDS011;3793;48.136;11.536;2022-11-25T10:43:17;2.43;;;1.40;;
7503;SDS011;3793;48.136;11.536;2022-11-25T10:45:46;2.37;;;1.50;;
7503;SDS011;3793;48.136;11.536;2022-11-25T10:48:20;1.20;;;1.10;;
7503;SDS011;3793;48.136;11.536;2022-11-25T10:50:54;3.70;;;1.27;;
7503;SDS011;3793;48.136;11.536;2022-11-25T10:53:24;1.93;;;1.07;;
7503;SDS011;3793;48.136;11.536;2022-11-25T10:56:00;2.37;;;1.47;;
7503;SDS011;3793;48.136;11.536;2022-11-25T10:58:31;1.53;;;1.20;;
7503;SDS011;3793;48.136;11.536;2022-11-25T11:01:05;1.50;;;1.40;;
7503;SDS011;3793;48.136;11.536;2022-11-25T11:03:32;3.07;;;1.33;;
7503;SDS011;3793;48.136;11.536;2022-11-25T11:05:58;4.53;;;1.20;;
7503;SDS011;3793;48.136;11.536;2022-11-25T11:08:26;1.50;;;1.23;;
7503;SDS011;3793;48.136;11.536;2022-11-25T11:11:14;2.07;;;1.20;;
7503;SDS011;3793;48.136;11.536;2022-11-25T11:13:41;4.93;;;1.30;;
7503;SDS011;3793;48.136;11.536;2022-11-25T11:16:19;1.90;;;1.20;;
7503;SDS011;3793;48.136;11.536;2022-11-25T11:18:46;2.40;;;1.23;;
7503;SDS011;3793;48.136;11.536;2022-11-25T11:21:20;2.03;;;1.20;;
7503;SDS011;3793;48.136;11.536;2022-11-25T11:23:47;2.53;;;1.40;;
7503;SDS011;3793;48.136;11.536;2022-11-25T11:26:21;2.10;;;1.27;;
7503;SDS011;3793;48.136;11.536;2022-11-25T11:28:55;1.40;;;1.20;;
7503;SDS011;3793;48.136;11.536;2022-11-25T11:31:22;4.30;;;1.90;;
7503;SDS011;3793;48.136;11.536;2022-11-25T11:33:54;3.47;;;1.67;;
7503;SDS011;3793;48.136;11.536;2022-11-25T11:36:30;2.77;;;1.77;;
7503;SDS011;3793;48.136;11.536;2022-11-25T11:39:08;4.17;;;1.77;;
7503;SDS011;3793;48.136;11.536;2022-11-25T11:41:42;2.03;;;1.40;;
7503;SDS011;3793;48.136;11.536;2022-11-25T11:44:14;2.27;;;1.53;;
7503;SDS011;3793;48.136;11.536;2022-11-25T11:47:05;7.30;;;1.70;;
7503;SDS011;3793;48.136;11.536;2022-11-25T11:49:38;2.03;;;1.53;;
7503;SDS011;3793;48.136;11.536;2022-11-25T11:52:14;2.40;;;1.47;;
7503;SDS011;3793;48.136;11.536;2022-11-25T11:54:44;4.33;;;1.60;;
7503;SDS011;3793;48.136;11.536;2022-11-25T11:57:14;3.53;;;1.50;;
7503;SDS011;3793;48.136;11.536;2022-11-25T11:59:46;3.60;;;1.50;;
7503;SDS011;3793;48.136;11.536;2022-11-25T12:05:03;1.53;;;1.10;;
7503;SDS011;3793;48.136;11.536;2022-11-25T12:07:31;2.40;;;1.30;;
7503;SDS011;3793;48.136;11.536;2022-11-25T12:10:01;2.07;;;1.20;;
7503;SDS011;3793;48.136;11.536;2022-11-25T12:12:31;2.00;;;1.30;;
7503;SDS011;3793;48.136;11.536;2022-11-25T12:15:00;3.63;;;1.43;;
7503;SDS011;3793;48.136;11.536;2022-11-25T12:17:29;2.73;;;1.30;;
7503;SDS011;3793;48.136;11.536;2022-11-25T12:19:57;1.53;;;1.20;;
7503;SDS011;3793;48.136;11.536;2022-11-25T12:22:31;1.27;;;1.17;;
7503;SDS011;3793;48.136;11.536;2022-11-25T12:25:02;2.10;;;1.30;;
7503;SDS011;3793;48.136;11.536;2022-11-25T12:27:30;2.60;;;1.40;;
7503;SDS011;3793;48.136;11.536;2022-11-25T12:30:00;2.50;;;1.27;;
7503;SDS011;3793;48.136;11.536;2022-11-25T12:32:41;1.63;;;0.93;;
7503;SDS011;3793;48.136;11.536;2022-11-25T12:35:12;3.40;;;1.20;;
7503;SDS011;3793;48.136;11.536;2022-11-25T12:37:44;1.70;;;1.20;;
7503;SDS011;3793;48.136;11.536;2022-11-25T12:40:12;3.33;;;1.13;;
7503;SDS011;3793;48.136;11.536;2022-11-25T12:42:39;1.50;;;1.40;;
7503;SDS011;3793;48.136;11.536;2022-11-25T12:45:08;2.07;;;1.07;;
7503;SDS011;3793;48.136;11.536;2022-11-25T12:47:37;2.07;;;1.00;;
7503;SDS011;3793;48.136;11.536;2022-11-25T12:50:04;1.77;;;1.10;;
7503;SDS011;3793;48.136;11.536;2022-11-25T12:52:41;2.13;;;1.33;;
7503;SDS011;3793;48.136;11.536;2022-11-25T12:55:15;2.83;;;1.23;;
7503;SDS011;3793;48.136;11.536;2022-11-25T12:57:47;2.87;;;1.40;;
7503;SDS011;3793;48.136;11.536;2022-11-25T13:00:18;3.27;;;1.40;;
7503;SDS011;3793;48.136;11.536;2022-11-25T13:05:34;3.40;;;1.77;;
7503;SDS011;3793;48.136;11.536;2022-11-25T13:08:03;2.47;;;1.43;;
7503;SDS011;3793;48.136;11.536;2022-11-25T13:10:48;2.33;;;1.30;;
7503;SDS011;3793;48.136;11.536;2022-11-25T13:13:27;3.40;;;1.50;;
7503;SDS011;3793;48.136;11.536;2022-11-25T13:15:56;1.73;;;1.43;;
7503;SDS011;3793;48.136;11.536;2022-11-25T13:18:25;2.20;;;1.53;;
7503;SDS011;3793;48.136;11.536;2022-11-25T13:20:52;2.30;;;1.30;;
7503;SDS011;3793;48.136;11.536;2022-11-25T13:23:21;3.40;;;1.50;;
7503;SDS011;3793;48.136;11.536;2022-11-25T13:25:50;3.33;;;1.67;;
7503;SDS011;3793;48.136;11.536;2022-11-25T13:28:28;4.03;;;1.53;;
7503;SDS011;3793;48.136;11.536;2022-11-25T13:30:56;2.20;;;1.43;;
7503;SDS011;3793;48.136;11.536;2022-11-25T13:33:55;3.00;;;1.50;;
7503;SDS011;3793;48.136;11.536;2022-11-25T13:36:23;4.23;;;1.60;;
7503;SDS011;3793;48.136;11.536;2022-11-25T13:38:57;3.63;;;1.40;;
7503;SDS011;3793;48.136;11.536;2022-11-25T13:44:26;2.40;;;1.60;;
7503;SDS011;3793;48.136;11.536;2022-11-25T13:46:56;3.80;;;1.80;;
7503;SDS011;3793;48.136;11.536;2022-11-25T13:49:33;4.00;;;1.70;;
7503;SDS011;3793;48.136;11.536;2022-11-25T13:52:02;4.33;;;2.20;;
7503;SDS011;3793;48.136;11.536;2022-11-25T13:54:32;5.03;;;1.90;;
7503;SDS011;3793;48.136;11.536;2022-11-25T13:57:15;4.17;;;1.73;;
7503;SDS011;3793;48.136;11.536;2022-11-25T13:59:51;5.37;;;2.27;;
7503;SDS011;3793;48.136;11.536;2022-11-25T14:02:28;5.97;;;2.03;;
7503;SDS011;3793;48.136;11.536;2022-11-25T14:04:56;4.30;;;2.10;;
7503;SDS011;3793;48.136;11.536;2022-11-25T14:07:25;5.70;;;2.00;;
7503;SDS011;3793;48.136;11.536;2022-11-25T14:10:02;6.00;;;2.10;;
7503;SDS011;3793;48.136;11.536;2022-11-25T14:12:37;4.20;;;1.80;;
7503;SDS011;3793;48.136;11.536;2022-11-25T14:15:19;5.20;;;3.27;;
7503;SDS011;3793;48.136;11.536;2022-11-25T14:18:02;3.40;;;2.20;;
7503;SDS011;3793;48.136;11.536;2022-11-25T14:20:35;3.17;;;1.87;;
7503;SDS011;3793;48.136;11.536;2022-11-25T14:23:20;6.13;;;2.43;;
7503;SDS011;3793;48.136;11.536;2022-11-25T14:25:50;6.53;;;2.50;;
7503;SDS011;3793;48.136;11.536;2022-11-25T14:28:20;3.57;;;2.00;;
7503;SDS011;3793;48.136;11.536;2022-11-25T14:30:51;3.10;;;2.20;;
7503;SDS011;3793;48.136;11.536;2022-11-25T14:33:20;4.63;;;2.10;;
7503;SDS011;3793;48.136;11.536;2022-11-25T14:35:49;3.73;;;2.00;;
7503;SDS011;3793;48.136;11.536;2022-11-25T14:38:18;5.17;;;1.73;;
7503;SDS011;3793;48.136;11.536;2022-11-25T14:40:46;4.10;;;1.80;;
7503;SDS011;3793;48.136;11.536;2022-11-25T14:43:16;4.60;;;2.00;;
7503;SDS011;3793;48.136;11.536;2022-11-25T14:45:45;5.57;;;1.90;;
7503;SDS011;3793;48.136;11.536;2022-11-25T14:48:13;4.33;;;2.03;;
7503;SDS011;3793;48.136;11.536;2022-11-25T14:50:52;3.33;;;1.73;;
7503;SDS011;3793;48.136;11.536;2022-11-25T14:53:18;5.87;;;2.17;;
7503;SDS011;3793;48.136;11.536;2022-11-25T14:55:45;4.03;;;1.70;;
7503;SDS011;3793;48.136;11.536;2022-11-25T14:58:12;5.57;;;1.80;;
7503;SDS011;3793;48.136;11.536;2022-11-25T15:00:48;7.07;;;2.40;;
7503;SDS011;3793;48.136;11.536;2022-11-25T15:03:16;6.27;;;2.23;;
7503;SDS011;3793;48.136;11.536;2022-11-25T15:05:44;4.97;;;2.10;;
7503;SDS011;3793;48.136;11.536;2022-11-25T15:08:18;5.37;;;2.10;;
7503;SDS011;3793;48.136;11.536;2022-11-25T15:10:48;5.23;;;1.80;;
7503;SDS011;3793;48.136;11.536;2022-11-25T15:13:21;4.77;;;2.47;;
7503;SDS011;3793;48.136;11.536;2022-11-25T15:15:49;5.57;;;1.90;;
7503;SDS011;3793;48.136;11.536;2022-11-25T15:18:18;2.97;;;1.77;;
7503;SDS011;3793;48.136;11.536;2022-11-25T15:20:46;5.63;;;2.33;;